Texarkana, TX

11:09 PM CST on November 28, 2014 (GMT -0600)
Liberty-Eylau | Change Station
CLOSE
Current Station
Personal Weather Station
Location: Texarkana, TX
Elevation: 272 ft
Nearby Weather Stations

Elev 272 ft 33.34 °N, 94.15 °W | Updated 4 seconds ago

Clear
Clear
55.3 °F
Feels Like 55.3 °F
N
2.5
Wind Variable Wind from South
Gusts 6.5 mph

Today
High -- | Low -- °F
--% Chance of Precip.
Yesterday
High -- | Low -- °F
Precip. -- in
7:00 AM 5:09 PM
Waxing Crescent, 48% visible
Pressure 30.04 in
Visibility 10.0 miles
Clouds Clear
Dew Point 49 °F
Humidity 80%
Rainfall 0.00 in
Snow Depth Not available.
UV 0 out of 12
Pollen 1.50 out of 12
Air Quality Not available.
Flu Activity Not available.
METAR KTXK 290453Z AUTO 18007KT 10SM CLR 12/09 A3004 RMK AO2 SLP172 T01220094

More Conditions Fewer Conditions

Pressure 30.04 in
Visibility 10.0 miles
Clouds Clear
Dew Point 49 °F
Humidity 80%
Rainfall 0.00 in
Snow Depth Not available.
UV 0 out of 12
Pollen 1.50 out of 12
Air Quality Not available.
Flu Activity Not available.
METAR KTXK 290453Z AUTO 18007KT 10SM CLR 12/09 A3004 RMK AO2 SLP172 T01220094

More Conditions Fewer Conditions

10-Day Weather Forecast

Almanac

Astronomy

Nov. 28, 2014 Rise Set
Actual Time
Civil Twilight
Nautical Twilight
Astronomical Twilight
Moon
Length of Visible Light
Length of Day
Tomorrow will be .
, % of the Moon is Illuminated

Today's Extremes

State Highs State Lows

Community

WunderPhotos

Upload Photos

1,774,417 photos uploaded!

WunderBlogs® & News

Nearby

Air Quality

  Air Quality AQ Index Pollutant
Not available.

Snow Depth

Station Depth Elevation

Earthquake Activity

City Distance Mag. Time & Date
Minimum magnitude displayed is 2.5.

Coastal Water Temperatures

Place Temperature

Nearby Weather Stations